sensor_id;sensor_type;location;lat;lon;timestamp;temperature;humidity
3332;DHT22;1678;50.94845400;5.30809100;2023-01-09T00:02:15;7.10;99.90
3332;DHT22;1678;50.94845400;5.30809100;2023-01-09T00:04:45;7.10;99.90
3332;DHT22;1678;50.94845400;5.30809100;2023-01-09T00:07:13;7.00;99.90
3332;DHT22;1678;50.94845400;5.30809100;2023-01-09T00:09:41;7.10;99.90
3332;DHT22;1678;50.94845400;5.30809100;2023-01-09T00:12:09;7.00;99.90
3332;DHT22;1678;50.94845400;5.30809100;2023-01-09T00:14:37;7.00;99.90
3332;DHT22;1678;50.94845400;5.30809100;2023-01-09T00:17:05;7.00;99.90
3332;DHT22;1678;50.94845400;5.30809100;2023-01-09T00:19:33;6.90;99.90
3332;DHT22;1678;50.94845400;5.30809100;2023-01-09T00:22:03;6.90;99.90
3332;DHT22;1678;50.94845400;5.30809100;2023-01-09T00:24:32;6.90;99.90
3332;DHT22;1678;50.94845400;5.30809100;2023-01-09T00:27:00;6.90;99.90
3332;DHT22;1678;50.94845400;5.30809100;2023-01-09T00:29:28;6.90;99.90
3332;DHT22;1678;50.94845400;5.30809100;2023-01-09T00:31:56;6.80;99.90
3332;DHT22;1678;50.94845400;5.30809100;2023-01-09T00:34:25;6.80;99.90
3332;DHT22;1678;50.94845400;5.30809100;2023-01-09T00:36:53;6.70;99.90
3332;DHT22;1678;50.94845400;5.30809100;2023-01-09T00:39:23;6.70;99.90
3332;DHT22;1678;50.94845400;5.30809100;2023-01-09T00:41:53;6.70;99.90
3332;DHT22;1678;50.94845400;5.30809100;2023-01-09T00:44:28;6.60;99.90
3332;DHT22;1678;50.94845400;5.30809100;2023-01-09T00:47:00;6.70;99.90
3332;DHT22;1678;50.94845400;5.30809100;2023-01-09T00:49:31;6.70;99.90
3332;DHT22;1678;50.94845400;5.30809100;2023-01-09T00:51:59;6.70;99.90
3332;DHT22;1678;50.94845400;5.30809100;2023-01-09T00:54:29;6.80;99.90
3332;DHT22;1678;50.94845400;5.30809100;2023-01-09T00:56:58;6.70;99.90
3332;DHT22;1678;50.94845400;5.30809100;2023-01-09T00:59:26;6.70;99.90
3332;DHT22;1678;50.94845400;5.30809100;2023-01-09T01:01:54;6.60;99.90
3332;DHT22;1678;50.94845400;5.30809100;2023-01-09T01:04:23;6.60;99.90
3332;DHT22;1678;50.94845400;5.30809100;2023-01-09T01:07:05;6.60;99.90
3332;DHT22;1678;50.94845400;5.30809100;2023-01-09T01:09:52;6.60;99.90
3332;DHT22;1678;50.94845400;5.30809100;2023-01-09T01:12:20;6.50;99.90
3332;DHT22;1678;50.94845400;5.30809100;2023-01-09T01:14:48;6.50;99.90
3332;DHT22;1678;50.94845400;5.30809100;2023-01-09T01:17:16;6.50;99.90
3332;DHT22;1678;50.94845400;5.30809100;2023-01-09T01:19:44;6.50;99.90
3332;DHT22;1678;50.94845400;5.30809100;2023-01-09T01:22:12;6.50;99.90
3332;DHT22;1678;50.94845400;5.30809100;2023-01-09T01:24:41;6.40;99.90
3332;DHT22;1678;50.94845400;5.30809100;2023-01-09T01:27:10;6.50;99.90
3332;DHT22;1678;50.94845400;5.30809100;2023-01-09T01:29:38;6.50;99.90
3332;DHT22;1678;50.94845400;5.30809100;2023-01-09T01:32:06;6.50;99.90
3332;DHT22;1678;50.94845400;5.30809100;2023-01-09T01:34:34;6.40;99.90
3332;DHT22;1678;50.94845400;5.30809100;2023-01-09T01:37:02;6.40;99.90
3332;DHT22;1678;50.94845400;5.30809100;2023-01-09T01:39:30;6.40;99.90
3332;DHT22;1678;50.94845400;5.30809100;2023-01-09T01:41:59;6.40;99.90
3332;DHT22;1678;50.94845400;5.30809100;2023-01-09T01:44:58;6.40;99.90
3332;DHT22;1678;50.94845400;5.30809100;2023-01-09T01:47:32;6.40;99.90
3332;DHT22;1678;50.94845400;5.30809100;2023-01-09T01:50:04;6.30;99.90
3332;DHT22;1678;50.94845400;5.30809100;2023-01-09T01:52:35;6.30;99.90
3332;DHT22;1678;50.94845400;5.30809100;2023-01-09T01:55:06;6.30;99.90
3332;DHT22;1678;50.94845400;5.30809100;2023-01-09T01:57:36;6.30;99.90
3332;DHT22;1678;50.94845400;5.30809100;2023-01-09T02:00:10;6.20;99.90
3332;DHT22;1678;50.94845400;5.30809100;2023-01-09T02:02:38;6.20;99.90
3332;DHT22;1678;50.94845400;5.30809100;2023-01-09T02:05:09;6.20;99.90
3332;DHT22;1678;50.94845400;5.30809100;2023-01-09T02:07:37;6.20;99.90
3332;DHT22;1678;50.94845400;5.30809100;2023-01-09T02:10:06;6.10;99.90
3332;DHT22;1678;50.94845400;5.30809100;2023-01-09T02:12:35;6.20;99.90
3332;DHT22;1678;50.94845400;5.30809100;2023-01-09T02:15:08;6.20;99.90
3332;DHT22;1678;50.94845400;5.30809100;2023-01-09T02:17:57;6.10;99.90
3332;DHT22;1678;50.94845400;5.30809100;2023-01-09T02:20:37;6.10;99.90
3332;DHT22;1678;50.94845400;5.30809100;2023-01-09T02:26:28;6.10;99.90
3332;DHT22;1678;50.94845400;5.30809100;2023-01-09T02:32:23;6.00;99.90
3332;DHT22;1678;50.94845400;5.30809100;2023-01-09T02:35:03;5.90;99.90
3332;DHT22;1678;50.94845400;5.30809100;2023-01-09T02:37:40;5.90;99.90
3332;DHT22;1678;50.94845400;5.30809100;2023-01-09T02:40:17;5.90;99.90
3332;DHT22;1678;50.94845400;5.30809100;2023-01-09T02:42:48;5.80;99.90
3332;DHT22;1678;50.94845400;5.30809100;2023-01-09T02:45:17;5.90;99.90
3332;DHT22;1678;50.94845400;5.30809100;2023-01-09T02:47:46;5.80;99.90
3332;DHT22;1678;50.94845400;5.30809100;2023-01-09T02:50:20;5.90;99.90
3332;DHT22;1678;50.94845400;5.30809100;2023-01-09T02:55:52;5.90;99.90
3332;DHT22;1678;50.94845400;5.30809100;2023-01-09T02:58:34;5.80;99.90
3332;DHT22;1678;50.94845400;5.30809100;2023-01-09T03:01:15;5.90;99.90
3332;DHT22;1678;50.94845400;5.30809100;2023-01-09T03:03:51;5.90;99.90
3332;DHT22;1678;50.94845400;5.30809100;2023-01-09T03:06:29;5.90;99.90
3332;DHT22;1678;50.94845400;5.30809100;2023-01-09T03:09:01;6.00;99.90
3332;DHT22;1678;50.94845400;5.30809100;2023-01-09T03:11:35;6.00;99.90
3332;DHT22;1678;50.94845400;5.30809100;2023-01-09T03:14:10;6.10;99.90
3332;DHT22;1678;50.94845400;5.30809100;2023-01-09T03:16:38;6.10;99.90
3332;DHT22;1678;50.94845400;5.30809100;2023-01-09T03:19:15;6.10;99.90
3332;DHT22;1678;50.94845400;5.30809100;2023-01-09T03:21:44;6.20;99.90
3332;DHT22;1678;50.94845400;5.30809100;2023-01-09T03:24:13;6.30;99.90
3332;DHT22;1678;50.94845400;5.30809100;2023-01-09T03:26:41;6.30;99.90
3332;DHT22;1678;50.94845400;5.30809100;2023-01-09T03:29:10;6.30;99.90
3332;DHT22;1678;50.94845400;5.30809100;2023-01-09T03:31:38;6.30;99.90
3332;DHT22;1678;50.94845400;5.30809100;2023-01-09T03:34:06;6.30;99.90
3332;DHT22;1678;50.94845400;5.30809100;2023-01-09T03:36:35;6.40;99.90
3332;DHT22;1678;50.94845400;5.30809100;2023-01-09T03:39:04;6.40;99.90
3332;DHT22;1678;50.94845400;5.30809100;2023-01-09T03:41:32;6.50;99.90
3332;DHT22;1678;50.94845400;5.30809100;2023-01-09T03:44:00;6.40;99.90
3332;DHT22;1678;50.94845400;5.30809100;2023-01-09T03:46:28;6.50;99.90
3332;DHT22;1678;50.94845400;5.30809100;2023-01-09T03:48:56;6.50;99.90
3332;DHT22;1678;50.94845400;5.30809100;2023-01-09T03:51:24;6.50;99.90
3332;DHT22;1678;50.94845400;5.30809100;2023-01-09T03:53:54;6.50;99.90
3332;DHT22;1678;50.94845400;5.30809100;2023-01-09T03:56:22;6.60;99.90
3332;DHT22;1678;50.94845400;5.30809100;2023-01-09T03:58:51;6.70;99.90
3332;DHT22;1678;50.94845400;5.30809100;2023-01-09T04:01:19;6.70;99.90
3332;DHT22;1678;50.94845400;5.30809100;2023-01-09T04:03:47;6.70;99.90
3332;DHT22;1678;50.94845400;5.30809100;2023-01-09T04:06:15;6.70;99.90
3332;DHT22;1678;50.94845400;5.30809100;2023-01-09T04:08:44;6.80;99.90
3332;DHT22;1678;50.94845400;5.30809100;2023-01-09T04:11:13;6.80;99.90
3332;DHT22;1678;50.94845400;5.30809100;2023-01-09T04:13:43;6.80;99.90
3332;DHT22;1678;50.94845400;5.30809100;2023-01-09T04:16:11;6.80;99.90
3332;DHT22;1678;50.94845400;5.30809100;2023-01-09T04:18:39;6.80;99.90
3332;DHT22;1678;50.94845400;5.30809100;2023-01-09T04:21:07;6.80;99.90
3332;DHT22;1678;50.94845400;5.30809100;2023-01-09T04:23:36;6.80;99.90
3332;DHT22;1678;50.94845400;5.30809100;2023-01-09T04:26:04;6.80;99.90
3332;DHT22;1678;50.94845400;5.30809100;2023-01-09T04:28:34;6.90;99.90
3332;DHT22;1678;50.94845400;5.30809100;2023-01-09T04:31:03;7.00;99.90
3332;DHT22;1678;50.94845400;5.30809100;2023-01-09T04:33:31;6.90;99.90
3332;DHT22;1678;50.94845400;5.30809100;2023-01-09T04:35:59;6.90;99.90
3332;DHT22;1678;50.94845400;5.30809100;2023-01-09T04:38:27;7.00;99.90
3332;DHT22;1678;50.94845400;5.30809100;2023-01-09T04:40:55;6.90;99.90
3332;DHT22;1678;50.94845400;5.30809100;2023-01-09T04:43:23;6.90;99.90
3332;DHT22;1678;50.94845400;5.30809100;2023-01-09T04:45:53;7.00;99.90
3332;DHT22;1678;50.94845400;5.30809100;2023-01-09T04:48:21;7.00;99.90
3332;DHT22;1678;50.94845400;5.30809100;2023-01-09T04:50:49;7.00;99.90
3332;DHT22;1678;50.94845400;5.30809100;2023-01-09T04:53:17;7.00;99.90
3332;DHT22;1678;50.94845400;5.30809100;2023-01-09T04:55:45;7.00;99.90
3332;DHT22;1678;50.94845400;5.30809100;2023-01-09T04:58:13;7.10;99.90
3332;DHT22;1678;50.94845400;5.30809100;2023-01-09T05:00:41;7.00;99.90
3332;DHT22;1678;50.94845400;5.30809100;2023-01-09T05:03:11;7.10;99.90
3332;DHT22;1678;50.94845400;5.30809100;2023-01-09T05:05:39;7.10;99.90
3332;DHT22;1678;50.94845400;5.30809100;2023-01-09T05:08:07;7.10;99.90
3332;DHT22;1678;50.94845400;5.30809100;2023-01-09T05:10:35;7.20;99.90
3332;DHT22;1678;50.94845400;5.30809100;2023-01-09T05:13:03;7.10;99.90
3332;DHT22;1678;50.94845400;5.30809100;2023-01-09T05:15:31;7.20;99.90
3332;DHT22;1678;50.94845400;5.30809100;2023-01-09T05:17:59;7.20;99.90
3332;DHT22;1678;50.94845400;5.30809100;2023-01-09T05:20:29;7.30;99.90
3332;DHT22;1678;50.94845400;5.30809100;2023-01-09T05:22:58;7.20;99.90
3332;DHT22;1678;50.94845400;5.30809100;2023-01-09T05:25:26;7.20;99.90
3332;DHT22;1678;50.94845400;5.30809100;2023-01-09T05:27:54;7.30;99.90
3332;DHT22;1678;50.94845400;5.30809100;2023-01-09T05:30:22;7.30;99.90
3332;DHT22;1678;50.94845400;5.30809100;2023-01-09T05:32:50;7.30;99.90
3332;DHT22;1678;50.94845400;5.30809100;2023-01-09T05:35:19;7.40;99.90
3332;DHT22;1678;50.94845400;5.30809100;2023-01-09T05:37:48;7.30;99.90
3332;DHT22;1678;50.94845400;5.30809100;2023-01-09T05:40:17;7.30;99.90
3332;DHT22;1678;50.94845400;5.30809100;2023-01-09T05:42:45;7.40;99.90
3332;DHT22;1678;50.94845400;5.30809100;2023-01-09T05:45:13;7.30;99.90
3332;DHT22;1678;50.94845400;5.30809100;2023-01-09T05:47:43;7.40;99.90
3332;DHT22;1678;50.94845400;5.30809100;2023-01-09T05:50:12;7.50;99.90
3332;DHT22;1678;50.94845400;5.30809100;2023-01-09T05:52:40;7.40;99.90
3332;DHT22;1678;50.94845400;5.30809100;2023-01-09T05:55:11;7.40;99.90
3332;DHT22;1678;50.94845400;5.30809100;2023-01-09T05:57:39;7.50;99.90
3332;DHT22;1678;50.94845400;5.30809100;2023-01-09T06:00:08;7.50;99.90
3332;DHT22;1678;50.94845400;5.30809100;2023-01-09T06:02:37;7.40;99.90
3332;DHT22;1678;50.94845400;5.30809100;2023-01-09T06:05:06;7.40;99.90
3332;DHT22;1678;50.94845400;5.30809100;2023-01-09T06:07:34;7.60;99.90
3332;DHT22;1678;50.94845400;5.30809100;2023-01-09T06:10:07;7.50;99.90
3332;DHT22;1678;50.94845400;5.30809100;2023-01-09T06:12:36;7.50;99.90
3332;DHT22;1678;50.94845400;5.30809100;2023-01-09T06:15:05;7.70;99.90
3332;DHT22;1678;50.94845400;5.30809100;2023-01-09T06:17:34;7.50;99.90
3332;DHT22;1678;50.94845400;5.30809100;2023-01-09T06:20:03;7.50;99.90
3332;DHT22;1678;50.94845400;5.30809100;2023-01-09T06:22:32;7.50;99.90
3332;DHT22;1678;50.94845400;5.30809100;2023-01-09T06:25:00;7.60;99.90
3332;DHT22;1678;50.94845400;5.30809100;2023-01-09T06:27:28;7.60;99.90
3332;DHT22;1678;50.94845400;5.30809100;2023-01-09T06:29:58;7.60;99.90
3332;DHT22;1678;50.94845400;5.30809100;2023-01-09T06:32:26;7.60;99.90
3332;DHT22;1678;50.94845400;5.30809100;2023-01-09T06:34:54;7.70;99.90
3332;DHT22;1678;50.94845400;5.30809100;2023-01-09T06:37:22;7.60;99.90
3332;DHT22;1678;50.94845400;5.30809100;2023-01-09T06:39:50;7.70;99.90
3332;DHT22;1678;50.94845400;5.30809100;2023-01-09T06:42:19;7.70;99.90
3332;DHT22;1678;50.94845400;5.30809100;2023-01-09T06:44:47;7.70;99.90
3332;DHT22;1678;50.94845400;5.30809100;2023-01-09T06:47:17;7.70;99.90
3332;DHT22;1678;50.94845400;5.30809100;2023-01-09T06:49:45;7.80;99.90
3332;DHT22;1678;50.94845400;5.30809100;2023-01-09T06:52:13;7.90;99.90
3332;DHT22;1678;50.94845400;5.30809100;2023-01-09T06:54:41;8.00;99.90
3332;DHT22;1678;50.94845400;5.30809100;2023-01-09T06:57:09;8.10;99.90
3332;DHT22;1678;50.94845400;5.30809100;2023-01-09T06:59:37;8.10;99.90
3332;DHT22;1678;50.94845400;5.30809100;2023-01-09T07:02:05;8.20;99.90
3332;DHT22;1678;50.94845400;5.30809100;2023-01-09T07:04:43;8.20;99.90
3332;DHT22;1678;50.94845400;5.30809100;2023-01-09T07:07:11;8.20;99.90
3332;DHT22;1678;50.94845400;5.30809100;2023-01-09T07:09:39;8.30;99.90
3332;DHT22;1678;50.94845400;5.30809100;2023-01-09T07:12:07;8.20;99.90
3332;DHT22;1678;50.94845400;5.30809100;2023-01-09T07:14:35;8.30;99.90
3332;DHT22;1678;50.94845400;5.30809100;2023-01-09T07:17:04;8.30;99.90
3332;DHT22;1678;50.94845400;5.30809100;2023-01-09T07:19:32;8.30;99.90
3332;DHT22;1678;50.94845400;5.30809100;2023-01-09T07:22:01;8.20;99.90
3332;DHT22;1678;50.94845400;5.30809100;2023-01-09T07:24:29;8.20;99.90
3332;DHT22;1678;50.94845400;5.30809100;2023-01-09T07:26:57;8.30;99.90
3332;DHT22;1678;50.94845400;5.30809100;2023-01-09T07:29:26;8.30;99.90
3332;DHT22;1678;50.94845400;5.30809100;2023-01-09T07:31:54;8.30;99.90
3332;DHT22;1678;50.94845400;5.30809100;2023-01-09T07:34:22;8.30;99.90
3332;DHT22;1678;50.94845400;5.30809100;2023-01-09T07:36:50;8.30;99.90
3332;DHT22;1678;50.94845400;5.30809100;2023-01-09T07:39:19;8.30;99.90
3332;DHT22;1678;50.94845400;5.30809100;2023-01-09T07:41:48;8.30;99.90
3332;DHT22;1678;50.94845400;5.30809100;2023-01-09T07:44:16;8.30;99.90
3332;DHT22;1678;50.94845400;5.30809100;2023-01-09T07:46:44;8.30;99.90
3332;DHT22;1678;50.94845400;5.30809100;2023-01-09T07:49:12;8.30;99.90
3332;DHT22;1678;50.94845400;5.30809100;2023-01-09T07:51:40;8.20;99.90
3332;DHT22;1678;50.94845400;5.30809100;2023-01-09T07:54:10;8.00;99.90
3332;DHT22;1678;50.94845400;5.30809100;2023-01-09T07:56:40;7.80;99.90
3332;DHT22;1678;50.94845400;5.30809100;2023-01-09T07:59:08;7.80;99.90
3332;DHT22;1678;50.94845400;5.30809100;2023-01-09T08:01:37;7.90;99.90
3332;DHT22;1678;50.94845400;5.30809100;2023-01-09T08:04:05;7.90;99.90
3332;DHT22;1678;50.94845400;5.30809100;2023-01-09T08:06:33;7.90;99.90
3332;DHT22;1678;50.94845400;5.30809100;2023-01-09T08:09:01;8.00;99.90
3332;DHT22;1678;50.94845400;5.30809100;2023-01-09T08:11:29;8.00;99.90
3332;DHT22;1678;50.94845400;5.30809100;2023-01-09T08:13:59;8.00;99.90
3332;DHT22;1678;50.94845400;5.30809100;2023-01-09T08:16:27;8.10;99.90
3332;DHT22;1678;50.94845400;5.30809100;2023-01-09T08:18:55;8.10;99.90
3332;DHT22;1678;50.94845400;5.30809100;2023-01-09T08:21:23;8.10;99.90
3332;DHT22;1678;50.94845400;5.30809100;2023-01-09T08:23:51;8.20;99.90
3332;DHT22;1678;50.94845400;5.30809100;2023-01-09T08:26:19;8.30;99.90
3332;DHT22;1678;50.94845400;5.30809100;2023-01-09T08:28:47;8.30;99.90
3332;DHT22;1678;50.94845400;5.30809100;2023-01-09T08:31:17;8.30;99.90
3332;DHT22;1678;50.94845400;5.30809100;2023-01-09T08:33:45;8.40;99.90
3332;DHT22;1678;50.94845400;5.30809100;2023-01-09T08:36:13;8.40;99.90
3332;DHT22;1678;50.94845400;5.30809100;2023-01-09T08:38:41;8.40;99.90
3332;DHT22;1678;50.94845400;5.30809100;2023-01-09T08:41:09;8.40;99.90
3332;DHT22;1678;50.94845400;5.30809100;2023-01-09T08:43:55;8.40;99.90
3332;DHT22;1678;50.94845400;5.30809100;2023-01-09T08:46:42;8.50;99.90
3332;DHT22;1678;50.94845400;5.30809100;2023-01-09T08:49:24;8.60;99.90
3332;DHT22;1678;50.94845400;5.30809100;2023-01-09T08:51:52;8.70;99.90
3332;DHT22;1678;50.94845400;5.30809100;2023-01-09T08:54:20;8.70;99.90
3332;DHT22;1678;50.94845400;5.30809100;2023-01-09T08:56:48;8.70;99.90
3332;DHT22;1678;50.94845400;5.30809100;2023-01-09T08:59:16;8.90;99.90
3332;DHT22;1678;50.94845400;5.30809100;2023-01-09T09:01:46;8.80;99.90
3332;DHT22;1678;50.94845400;5.30809100;2023-01-09T09:04:14;8.90;99.90
3332;DHT22;1678;50.94845400;5.30809100;2023-01-09T09:06:42;8.80;99.90
3332;DHT22;1678;50.94845400;5.30809100;2023-01-09T09:09:10;8.80;99.90
3332;DHT22;1678;50.94845400;5.30809100;2023-01-09T09:11:39;8.70;99.90
3332;DHT22;1678;50.94845400;5.30809100;2023-01-09T09:14:07;8.70;99.90
3332;DHT22;1678;50.94845400;5.30809100;2023-01-09T09:16:52;8.70;99.90
3332;DHT22;1678;50.94845400;5.30809100;2023-01-09T09:19:21;8.60;99.90
3332;DHT22;1678;50.94845400;5.30809100;2023-01-09T09:21:49;8.70;99.90
3332;DHT22;1678;50.94845400;5.30809100;2023-01-09T09:24:17;8.70;99.90
3332;DHT22;1678;50.94845400;5.30809100;2023-01-09T09:26:45;8.70;99.90
3332;DHT22;1678;50.94845400;5.30809100;2023-01-09T09:29:13;8.70;99.90
3332;DHT22;1678;50.94845400;5.30809100;2023-01-09T09:31:44;8.70;99.90
3332;DHT22;1678;50.94845400;5.30809100;2023-01-09T09:34:13;8.60;99.90
3332;DHT22;1678;50.94845400;5.30809100;2023-01-09T09:36:41;8.70;99.90
3332;DHT22;1678;50.94845400;5.30809100;2023-01-09T09:39:09;8.70;99.90
3332;DHT22;1678;50.94845400;5.30809100;2023-01-09T09:41:59;8.70;99.90
3332;DHT22;1678;50.94845400;5.30809100;2023-01-09T09:45:11;8.70;99.90
3332;DHT22;1678;50.94845400;5.30809100;2023-01-09T09:47:50;8.60;99.90
3332;DHT22;1678;50.94845400;5.30809100;2023-01-09T09:50:38;8.60;99.60
3332;DHT22;1678;50.94845400;5.30809100;2023-01-09T09:53:16;8.60;97.60
3332;DHT22;1678;50.94845400;5.30809100;2023-01-09T09:55:47;8.60;97.70
3332;DHT22;1678;50.94845400;5.30809100;2023-01-09T09:58:20;8.50;98.30
3332;DHT22;1678;50.94845400;5.30809100;2023-01-09T10:00:52;8.50;98.90
3332;DHT22;1678;50.94845400;5.30809100;2023-01-09T10:03:25;8.50;98.10
3332;DHT22;1678;50.94845400;5.30809100;2023-01-09T10:06:04;8.50;97.60
3332;DHT22;1678;50.94845400;5.30809100;2023-01-09T10:08:38;8.50;95.70
3332;DHT22;1678;50.94845400;5.30809100;2023-01-09T10:11:12;8.40;96.00
3332;DHT22;1678;50.94845400;5.30809100;2023-01-09T10:13:42;8.40;96.70
3332;DHT22;1678;50.94845400;5.30809100;2023-01-09T10:16:38;8.50;97.10
3332;DHT22;1678;50.94845400;5.30809100;2023-01-09T10:19:17;8.50;95.60
3332;DHT22;1678;50.94845400;5.30809100;2023-01-09T10:21:57;8.50;97.10
3332;DHT22;1678;50.94845400;5.30809100;2023-01-09T10:24:37;8.50;98.60
3332;DHT22;1678;50.94845400;5.30809100;2023-01-09T10:27:15;8.50;97.30
3332;DHT22;1678;50.94845400;5.30809100;2023-01-09T10:29:57;8.40;98.20
3332;DHT22;1678;50.94845400;5.30809100;2023-01-09T10:32:36;8.40;97.50
3332;DHT22;1678;50.94845400;5.30809100;2023-01-09T10:38:19;8.40;99.40
3332;DHT22;1678;50.94845400;5.30809100;2023-01-09T10:40:53;8.40;99.10
3332;DHT22;1678;50.94845400;5.30809100;2023-01-09T10:43:29;8.30;99.00
3332;DHT22;1678;50.94845400;5.30809100;2023-01-09T10:46:03;8.30;99.90
3332;DHT22;1678;50.94845400;5.30809100;2023-01-09T10:48:34;8.20;99.90
3332;DHT22;1678;50.94845400;5.30809100;2023-01-09T10:51:13;8.20;99.90
3332;DHT22;1678;50.94845400;5.30809100;2023-01-09T10:53:46;8.20;99.90
3332;DHT22;1678;50.94845400;5.30809100;2023-01-09T10:56:19;8.20;99.90
3332;DHT22;1678;50.94845400;5.30809100;2023-01-09T10:58:48;8.30;99.90
3332;DHT22;1678;50.94845400;5.30809100;2023-01-09T11:01:20;8.20;99.90
3332;DHT22;1678;50.94845400;5.30809100;2023-01-09T11:03:50;8.20;99.90
3332;DHT22;1678;50.94845400;5.30809100;2023-01-09T11:06:21;8.10;99.90
3332;DHT22;1678;50.94845400;5.30809100;2023-01-09T11:08:55;8.10;99.90
3332;DHT22;1678;50.94845400;5.30809100;2023-01-09T11:11:33;8.20;99.90
3332;DHT22;1678;50.94845400;5.30809100;2023-01-09T11:14:06;8.30;99.90
3332;DHT22;1678;50.94845400;5.30809100;2023-01-09T11:16:50;8.30;99.90
3332;DHT22;1678;50.94845400;5.30809100;2023-01-09T11:19:19;8.30;99.90
3332;DHT22;1678;50.94845400;5.30809100;2023-01-09T11:21:47;8.40;99.90
3332;DHT22;1678;50.94845400;5.30809100;2023-01-09T11:24:34;8.40;99.90
3332;DHT22;1678;50.94845400;5.30809100;2023-01-09T11:27:23;8.40;99.90
3332;DHT22;1678;50.94845400;5.30809100;2023-01-09T11:30:15;8.50;99.90
3332;DHT22;1678;50.94845400;5.30809100;2023-01-09T11:32:46;8.50;99.90
3332;DHT22;1678;50.94845400;5.30809100;2023-01-09T11:35:21;8.60;99.90
3332;DHT22;1678;50.94845400;5.30809100;2023-01-09T11:37:59;8.60;99.90
3332;DHT22;1678;50.94845400;5.30809100;2023-01-09T11:40:35;8.90;99.90
3332;DHT22;1678;50.94845400;5.30809100;2023-01-09T11:43:14;8.80;99.90
3332;DHT22;1678;50.94845400;5.30809100;2023-01-09T11:45:46;8.80;99.20
3332;DHT22;1678;50.94845400;5.30809100;2023-01-09T11:48:29;9.10;99.50
3332;DHT22;1678;50.94845400;5.30809100;2023-01-09T11:51:01;8.90;97.50
3332;DHT22;1678;50.94845400;5.30809100;2023-01-09T11:53:44;8.90;99.20
3332;DHT22;1678;50.94845400;5.30809100;2023-01-09T11:56:17;9.00;98.00
3332;DHT22;1678;50.94845400;5.30809100;2023-01-09T11:58:45;9.00;97.90
3332;DHT22;1678;50.94845400;5.30809100;2023-01-09T12:01:25;9.00;96.40
3332;DHT22;1678;50.94845400;5.30809100;2023-01-09T12:04:17;8.80;98.20
3332;DHT22;1678;50.94845400;5.30809100;2023-01-09T12:06:56;8.80;98.00
3332;DHT22;1678;50.94845400;5.30809100;2023-01-09T12:09:35;8.70;98.60
3332;DHT22;1678;50.94845400;5.30809100;2023-01-09T12:12:15;8.70;99.90
3332;DHT22;1678;50.94845400;5.30809100;2023-01-09T12:14:54;8.60;99.90
3332;DHT22;1678;50.94845400;5.30809100;2023-01-09T12:17:57;8.50;99.90
3332;DHT22;1678;50.94845400;5.30809100;2023-01-09T12:20:35;8.60;99.90
3332;DHT22;1678;50.94845400;5.30809100;2023-01-09T12:23:18;8.60;99.90
3332;DHT22;1678;50.94845400;5.30809100;2023-01-09T12:25:52;8.60;99.90
3332;DHT22;1678;50.94845400;5.30809100;2023-01-09T12:28:51;8.60;99.90
3332;DHT22;1678;50.94845400;5.30809100;2023-01-09T12:31:33;8.60;99.90
3332;DHT22;1678;50.94845400;5.30809100;2023-01-09T12:34:14;8.60;99.90
3332;DHT22;1678;50.94845400;5.30809100;2023-01-09T12:36:55;8.60;99.90
3332;DHT22;1678;50.94845400;5.30809100;2023-01-09T12:39:34;8.60;99.90
3332;DHT22;1678;50.94845400;5.30809100;2023-01-09T12:42:15;8.70;99.90
3332;DHT22;1678;50.94845400;5.30809100;2023-01-09T12:44:54;8.80;99.90
3332;DHT22;1678;50.94845400;5.30809100;2023-01-09T12:47:47;8.90;99.90
3332;DHT22;1678;50.94845400;5.30809100;2023-01-09T12:53:25;8.70;99.90
3332;DHT22;1678;50.94845400;5.30809100;2023-01-09T12:55:58;8.60;99.90
3332;DHT22;1678;50.94845400;5.30809100;2023-01-09T12:58:32;8.60;99.90
3332;DHT22;1678;50.94845400;5.30809100;2023-01-09T13:01:09;8.70;99.90
3332;DHT22;1678;50.94845400;5.30809100;2023-01-09T13:03:45;8.70;99.90
3332;DHT22;1678;50.94845400;5.30809100;2023-01-09T13:06:16;8.60;99.90
3332;DHT22;1678;50.94845400;5.30809100;2023-01-09T13:08:47;8.60;99.90
3332;DHT22;1678;50.94845400;5.30809100;2023-01-09T13:11:21;8.60;99.90
3332;DHT22;1678;50.94845400;5.30809100;2023-01-09T13:13:54;8.80;99.90
3332;DHT22;1678;50.94845400;5.30809100;2023-01-09T13:16:28;8.70;99.90
3332;DHT22;1678;50.94845400;5.30809100;2023-01-09T13:19:02;8.50;99.90
3332;DHT22;1678;50.94845400;5.30809100;2023-01-09T13:21:33;8.40;99.90
3332;DHT22;1678;50.94845400;5.30809100;2023-01-09T13:24:06;8.50;99.90
3332;DHT22;1678;50.94845400;5.30809100;2023-01-09T13:26:42;8.60;99.90
3332;DHT22;1678;50.94845400;5.30809100;2023-01-09T13:29:14;8.50;99.90
3332;DHT22;1678;50.94845400;5.30809100;2023-01-09T13:32:03;8.50;99.90
3332;DHT22;1678;50.94845400;5.30809100;2023-01-09T13:34:35;8.60;99.90
3332;DHT22;1678;50.94845400;5.30809100;2023-01-09T13:37:18;8.60;99.90
3332;DHT22;1678;50.94845400;5.30809100;2023-01-09T13:39:55;8.50;99.90
3332;DHT22;1678;50.94845400;5.30809100;2023-01-09T13:42:24;8.60;99.90
3332;DHT22;1678;50.94845400;5.30809100;2023-01-09T13:45:18;8.60;99.90
3332;DHT22;1678;50.94845400;5.30809100;2023-01-09T13:48:22;8.60;99.90
3332;DHT22;1678;50.94845400;5.30809100;2023-01-09T13:50:51;8.50;99.90
3332;DHT22;1678;50.94845400;5.30809100;2023-01-09T13:53:46;8.50;99.90
3332;DHT22;1678;50.94845400;5.30809100;2023-01-09T13:56:14;8.40;99.90
3332;DHT22;1678;50.94845400;5.30809100;2023-01-09T13:59:00;8.40;99.90
3332;DHT22;1678;50.94845400;5.30809100;2023-01-09T14:01:40;8.50;99.90
3332;DHT22;1678;50.94845400;5.30809100;2023-01-09T14:04:44;8.50;99.90
3332;DHT22;1678;50.94845400;5.30809100;2023-01-09T14:07:20;8.50;99.90
3332;DHT22;1678;50.94845400;5.30809100;2023-01-09T14:09:52;8.50;99.90
3332;DHT22;1678;50.94845400;5.30809100;2023-01-09T14:12:21;8.50;99.90
3332;DHT22;1678;50.94845400;5.30809100;2023-01-09T14:14:51;8.50;99.90
3332;DHT22;1678;50.94845400;5.30809100;2023-01-09T14:17:26;8.40;99.90
3332;DHT22;1678;50.94845400;5.30809100;2023-01-09T14:20:00;8.40;99.90
3332;DHT22;1678;50.94845400;5.30809100;2023-01-09T14:22:30;8.40;99.90
3332;DHT22;1678;50.94845400;5.30809100;2023-01-09T14:25:19;8.40;99.90
3332;DHT22;1678;50.94845400;5.30809100;2023-01-09T14:28:03;8.50;99.90
3332;DHT22;1678;50.94845400;5.30809100;2023-01-09T14:30:38;8.50;99.90
3332;DHT22;1678;50.94845400;5.30809100;2023-01-09T14:33:25;8.70;99.90
3332;DHT22;1678;50.94845400;5.30809100;2023-01-09T14:36:13;8.80;99.90
3332;DHT22;1678;50.94845400;5.30809100;2023-01-09T14:38:46;8.90;99.90
3332;DHT22;1678;50.94845400;5.30809100;2023-01-09T14:41:22;8.90;99.90
3332;DHT22;1678;50.94845400;5.30809100;2023-01-09T14:44:23;8.80;99.90